Skip Navigation Links
NOAA logo - Click to go to the NOAA homepage
NOAA's National Weather Service
Alaska Aviation Weather Unit
  NWS logo - Click to go to the NWS homepage
Left Navbar Graphic     15 AKDT = 23 GMT

   
NOAA is celebrating 200 years of science, service, and stewardship. Visit the NOAA 200th celebration Web site to learn more.
USA.gov is the U.S. Government's official Web portal to all Federal, state and local government Web resources and services.
Facebook
NWS on Facebook

Important Change Regarding the AAWU Web Presence

 

Over the last several months, the AAWU has been working to navigate its webpages to a nationally supported server. Security, as well as other needs, have necessitated the change.  We have been given an extension for the site changeover while we diligently work at addressing feedback received. As of July 14, 2017, aawu.arh.noaa.gov will be discontinued. The new AAWU web address is weather.gov/aawu. It is now live and will run in-parallel with the old site until it is discontinued on July 14, 2017. Please continue to send any feedback or questions regarding the new webpages to nws.ar.aawu.webauthors@noaa.gov.  Thank you for your patience during this time of transition.
AAWU Home :: Display TAF Add Bookmark
METAR PAOH 191756Z AUTO VRB03KT 10SM OVC041 03/03 A2896 RMK AO2 SLP809
     60000 T00280028 10028 21006 51008=

METAR PAOH 191856Z AUTO 10006KT 10SM OVC037 04/04 A2897 RMK AO2 SLP813
     T00440039=

METAR PAOH 191956Z AUTO 11008KT 10SM OVC033 06/03 A2899 RMK AO2 SLP818
     T00610028=

SPECI PAOH 192038Z AUTO 11007KT 10SM OVC029 06/03 A2901 RMK AO2=

METAR PAOH 192056Z AUTO 11007KT 10SM BKN022 OVC029 06/03 A2901 RMK AO2
     SLP825 T00610033 53017=

METAR PAOH 192156Z AUTO 10007KT 10SM OVC026 06/03 A2903 RMK AO2 SLP830
     T00610028=

SPECI PAOH 192222Z AUTO 09008KT 10SM OVC031 06/03 A2902 RMK AO2=

METAR PAOH 192256Z AUTO 08008KT 10SM OVC031 06/03 A2903 RMK AO2
 SLP833 T00610028=


NOAA's National Weather Service
Alaska Aviation Weather Unit
6930 Sand Lake Road
Anchorage, AK 99502-1845
Disclaimer
Credits
Glossary
Privacy Policy
About Us
Career Opportunities
Contact AAWU Internet Services Site last modified: April, 17th 2012